KAFF/AFF METAR and TAF weather

Enter ICAO airport designator
Station Type Date Time Source
KAFF METAR 2019/05/19 20:58 UTC NOAA

KAFF 192058Z AUTO 15013KT 10SM OVC065 13/M02 A2990 RMK AO2 PK WND 18026/12 SLP106 T01251018 57015


Station Type Date Time Source
KAFF Decoded METAR 2019/05/19 20:58 UTC NOAA

Air Force Academy, CO, United States (KAFF) 38-58N 104-49W 1999M
May 19, 2019 - 04:58 PM EDT / 2019.05.19 2058 UTC
Wind: from the SSE (150 degrees) at 15 MPH (13 KT):0
Visibility: 10 mile(s):0
Sky conditions: overcast
Temperature: 54.5 F (12.5 C)
Dew Point: 28.8 F (-1.8 C)
Relative Humidity: 36%
Pressure (altimeter): 29.9 in. Hg (1012 hPa)
Pressure tendency: 0.04 inches (1.5 hPa) lower than three hours ago
ob: KAFF 192058Z AUTO 15013KT 10SM OVC065 13/M02 A2990 RMK AO2 PK WND 18026/12 SLP106 T01251018 57015
cycle: 21

Station Type Date Time Source
KAFF TAF 2019/05/17 18:42 UTC NOAA

TAF TAF
AMD KAFF 1718/1817 18025G35KT 9999 SCT090 530009 QNH2960INS
BECMG 1720/1721 25025G35KT 9999 VCSH BKN050 530009 QNH2962INS
BECMG 1802/1803 32009KT 9999 NSW FEW070 QNH2973INS
BECMG 1814/1815 29012KT 9999 BKN060 QNH2977INS TX20/1721Z TN05/1810Z LAST NO
AMDS AFT 1718 NEXT 2011

Example: see airport list